logo dgac
Miércoles 19 de Junio del 2024
Buscar por aerodromo o helipuerto
Ingrese nombre de aeródromo, localidad o designador OACI:

Aeródromo: Cochrane (PUB) (SCHR)

Ubicación: Cochrane, XI Región, Chile (47º 14' 37'' S, 72º 35' 16'' W) Ver ubicación en el mapa

Pistas

Luces
Orientación Dimensión Pendiente Superficie Resistencia APCH THR RWY PAPI
07/25 1050 x 23 2,00 ASPH /CONCRETO 23.000 Kg No No No No
Horas de operación HJ
Elevación 196 m / 643 ft
Otra Información Adm : D.G.A.C.
Uso : PUB
Ubicado : 3 km NW Cochrane
TEL (FAX) 67 2522121
email : aro.cochrane@dgac.gob.cl

Al FCCV restar 30 minutos
Otra información ver AIP-Chile Volumen I AD 3.9-3.10-C
CCCM/FCCV Descargar CCCM/FCCV
andera de Chile
Mapa de Cochrane (PUB) (SCHR)

Último METAR

METAR SCHR 191000Z AUTO 07011KT 040V130 9999 -SHSN NSC M00/M06 Q1015

Último TAF

TAF SCHR 191007Z 1912/2000 06006KT 9999 FEW015 SCT038 TNM04/2000Z TX00/1918Z BECMG 1919/1921 VRB02KT SCT050

Últimas fotos cámaras

Imagen aerodromo Cochrane (PUB) (SCHR) Oeste tomada el 19-06-2024 10:34:25 Imagen aerodromo Cochrane (PUB) (SCHR) Este tomada el 01-01-1970 12:00:00

Último NOTAM

C1447/24 NOTAMN Q)SCCZ/QSFXX/IV/NBO/A/000/999/4715S07235W005 A)SCHR B)2404011601 C)PERM E)ACTUALIZA TELEFONO AFIS REF AIP CHILE VOLUMEN I AD 3.9-3.10-C TEL SERVICIO TWR AFIS +56942879363 PARA FINES OPERATIVOS